Data for 04/18/2007

Time Sea-Level Adjusted Pressure Absolute Pressure Temperature Relative Humidity Dew Point   
(mb) (inHg) (mb) (inHg) (C) (F) (%) (C) (F)
00:05 1008 29.77 837 24.72 7.1 44.7 71 2.2 35.9
00:10 1008 29.77 837 24.72 6.6 43.9 72 2 35.6
00:15 1008 29.77 837 24.72 6.5 43.7 72 1.8 35.2
00:20 1008 29.77 837 24.72 6.5 43.7 72 1.9 35.4
00:25 1008 29.77 837 24.72 6.3 43.4 73 1.9 35.4
00:30 1008 29.77 837 24.72 6.4 43.5 72 1.8 35.2
00:35 1008 29.77 837 24.72 6.3 43.3 74 1.9 35.5
00:40 1008 29.77 837 24.72 6.1 43 74 1.8 35.3
00:45 1008 29.77 837 24.72 6.1 43 74 1.8 35.2
00:50 1008 29.77 837 24.72 6.4 43.5 72 1.7 35.1
00:55 1008 29.77 837 24.72 6.4 43.6 72 1.8 35.3
01:00 1008 29.77 837 24.72 6.5 43.7 72 1.9 35.4
01:05 1008 29.77 837 24.72 6.7 44 71 1.8 35.2
01:10 1008 29.77 837 24.72 6.6 43.9 71 1.7 35.1
01:15 1008 29.77 837 24.72 6.6 43.8 71 1.7 35
01:20 1008 29.77 837 24.72 6.5 43.7 72 1.8 35.2
01:25 1008 29.77 838 24.75 6.4 43.6 75 2.3 36.1
01:30 1008 29.77 838 24.75 6.1 43 77 2.4 36.3
01:35 1008 29.77 838 24.75 6.1 42.9 78 2.5 36.4
01:40 1008 29.77 838 24.75 6.2 43.1 77 2.4 36.4
01:45 1008 29.77 838 24.75 6.1 43 78 2.5 36.6
01:50 1008 29.77 837 24.72 5.9 42.6 79 2.5 36.6
01:55 1008 29.77 838 24.75 5.9 42.6 78 2.4 36.4
02:00 1008 29.77 838 24.75 6.1 42.9 78 2.5 36.6
02:05 1008 29.77 838 24.75 6.2 43.2 77 2.5 36.5
02:10 1008 29.77 838 24.75 6 42.7 79 2.6 36.6
02:15 1008 29.77 838 24.75 5.8 42.4 80 2.6 36.7
02:20 1008 29.77 837 24.72 5.6 42.1 80 2.4 36.3
02:25 1008 29.77 837 24.72 5.7 42.2 79 2.3 36.2
02:30 1008 29.77 837 24.72 5.8 42.5 79 2.5 36.4
02:35 1008 29.77 837 24.72 5.7 42.3 79 2.4 36.4
02:40 1007 29.74 837 24.72 5.7 42.3 79 2.4 36.3
02:45 1007 29.74 837 24.72 5.7 42.3 80 2.5 36.6
02:50 1007 29.74 837 24.72 5.5 41.9 80 2.4 36.3
02:55 1007 29.74 836 24.69 5.4 41.6 81 2.3 36.1
03:00 1007 29.74 837 24.72 5.4 41.7 81 2.3 36.2
03:05 1007 29.74 836 24.69 5.4 41.7 81 2.3 36.2
03:10 1007 29.74 836 24.69 5.5 41.8 80 2.2 36
03:15 1007 29.74 836 24.69 5.7 42.3 78 2.1 35.8
03:20 1007 29.74 836 24.69 5.9 42.6 78 2.4 36.3
03:25 1007 29.74 836 24.69 5.8 42.5 78 2.3 36.1
03:30 1007 29.74 836 24.69 6 42.8 78 2.4 36.3
03:35 1007 29.74 836 24.69 5.9 42.7 78 2.3 36.2
03:40 1007 29.74 837 24.72 5.9 42.5 79 2.4 36.4
03:45 1007 29.74 836 24.69 5.6 42.1 79 2.3 36.1
03:50 1007 29.74 836 24.69 5.6 42.1 79 2.3 36.1
03:55 1007 29.74 837 24.72 5.6 42.2 79 2.3 36.1
04:00 1007 29.74 837 24.72 5.7 42.2 79 2.2 36
04:05 1007 29.74 837 24.72 5.7 42.3 79 2.3 36.1
04:10 1007 29.74 836 24.69 6 42.8 77 2.2 36
04:15 1007 29.74 836 24.69 6.1 43 77 2.4 36.3
04:20 1007 29.74 836 24.69 5.8 42.4 79 2.5 36.5
04:25 1007 29.74 836 24.69 5.3 41.6 81 2.3 36.2
04:30 1007 29.74 836 24.69 5.3 41.5 81 2.4 36.2
04:35 1007 29.74 836 24.69 5.3 41.6 81 2.3 36.2
04:40 1007 29.74 836 24.69 5.3 41.6 81 2.3 36.2
04:45 1007 29.74 836 24.69 5.5 41.8 80 2.4 36.2
04:50 1007 29.74 836 24.69 5.4 41.7 81 2.4 36.3
04:55 1007 29.74 836 24.69 5.4 41.7 81 2.3 36.2
05:00 1006 29.71 836 24.69 5.5 41.9 80 2.4 36.3
05:05 1006 29.71 836 24.69 5.4 41.8 81 2.4 36.3
05:10 1006 29.71 835 24.66 5.3 41.5 81 2.3 36.2
05:15 1006 29.71 835 24.66 5.1 41.2 82 2.3 36.2
05:20 1006 29.71 835 24.66 5 41 82 2.2 36
05:25 1006 29.71 835 24.66 5 41 82 2.2 36
05:30 1006 29.71 835 24.66 5 40.9 82 2.1 35.8
05:35 1006 29.71 835 24.66 5.1 41.1 81 2.1 35.9
05:40 1006 29.71 835 24.66 5.1 41.2 81 2.2 36
05:45 1006 29.71 835 24.66 5.2 41.3 81 2.2 36
05:50 1006 29.71 835 24.66 5.3 41.5 81 2.2 36
05:55 1006 29.71 835 24.66 5.4 41.7 80 2.3 36.2
06:00 1006 29.71 835 24.66 5.4 41.7 81 2.4 36.4
06:05 1006 29.71 836 24.69 5.3 41.5 84 2.8 37.1
06:10 1006 29.71 836 24.69 5.1 41.2 85 2.9 37.1
06:15 1006 29.71 836 24.69 5.2 41.4 85 2.8 37.1
06:20 1006 29.71 836 24.69 5.2 41.4 85 2.9 37.2
06:25 1006 29.71 836 24.69 5.2 41.3 85 2.9 37.2
06:30 1006 29.71 836 24.69 5.2 41.4 86 3 37.4
06:35 1006 29.71 836 24.69 5.2 41.4 86 3.1 37.6
06:40 1006 29.71 835 24.66 5.4 41.7 85 3 37.4
06:45 1006 29.71 835 24.66 5.4 41.6 85 3 37.4
06:50 1006 29.71 835 24.66 5.3 41.5 86 3.1 37.6
06:55 1006 29.71 835 24.66 5.2 41.4 87 3.2 37.8
07:00 1006 29.71 835 24.66 5.2 41.3 89 3.5 38.3
07:05 1006 29.71 835 24.66 5 40.9 92 3.8 38.9
07:10 1006 29.71 835 24.66 4.6 40.2 94 3.7 38.7
07:15 1006 29.71 835 24.66 4.4 39.9 95 3.7 38.7
07:20 1006 29.71 835 24.66 4.4 39.9 96 3.8 38.8
07:25 1006 29.71 835 24.66 4.6 40.3 95 4 39.1
07:30 1006 29.71 835 24.66 4.8 40.6 95 4 39.2
07:35 1006 29.71 835 24.66 4.8 40.7 94 4 39.2
07:40 1006 29.71 835 24.66 5 40.9 94 4 39.3
07:45 1006 29.71 835 24.66 4.9 40.8 93 3.8 38.9
07:50 1006 29.71 835 24.66 4.8 40.7 93 3.8 38.9
07:55 1006 29.71 835 24.66 4.9 40.7 93 3.8 38.9
08:00 1006 29.71 835 24.66 4.8 40.6 93 3.8 38.8
08:05 1006 29.71 835 24.66 4.8 40.7 93 3.9 38.9
08:10 1006 29.71 836 24.69 4.8 40.7 94 3.9 39
08:15 1006 29.71 835 24.66 4.8 40.6 93 3.8 38.8
08:20 1006 29.71 835 24.66 4.6 40.3 94 3.7 38.6
08:25 1006 29.71 835 24.66 4.7 40.4 94 3.8 38.8
08:30 1006 29.71 835 24.66 4.8 40.6 94 3.9 38.9
08:35 1006 29.71 835 24.66 4.5 40.1 93 3.4 38.2
08:40 1006 29.71 835 24.66 4.3 39.7 93 3.3 37.9
08:45 1006 29.71 835 24.66 4.3 39.7 94 3.3 38
08:50 1006 29.71 835 24.66 4.3 39.8 93 3.3 37.9
08:55 1006 29.71 835 24.66 4.2 39.5 92 3.1 37.5
09:00 1006 29.71 835 24.66 4.1 39.4 92 3 37.4
09:05 1005 29.68 835 24.66 4.1 39.3 92 2.9 37.3
09:10 1005 29.68 835 24.66 4.1 39.4 93 3.1 37.6
09:15 1005 29.68 835 24.66 4.1 39.4 92 2.9 37.1
09:20 1005 29.68 835 24.66 3.9 39 91 2.6 36.7
09:25 1005 29.68 834 24.63 3.7 38.6 92 2.5 36.4
09:30 1005 29.68 834 24.63 3.5 38.3 93 2.4 36.4
09:35 1005 29.68 834 24.63 3.5 38.4 93 2.5 36.4
09:40 1005 29.68 834 24.63 3.3 37.9 92 2.2 35.9
09:45 1005 29.68 834 24.63 3.1 37.6 94 2.2 35.9
09:50 1005 29.68 834 24.63 3 37.3 94 2.1 35.8
09:55 1005 29.68 834 24.63 2.9 37.1 94 2 35.7
10:00 1005 29.68 834 24.63 2.7 36.9 94 1.9 35.4
10:05 1005 29.68 834 24.63 2.8 37 95 2 35.6
10:10 1005 29.68 834 24.63 2.7 36.8 95 2 35.6
10:15 1005 29.68 834 24.63 2.9 37.2 95 2.1 35.8
10:20 1005 29.68 834 24.63 3 37.4 93 2 35.6
10:25 1005 29.68 834 24.63 2.9 37.2 94 2 35.6
10:30 1005 29.68 834 24.63 2.8 37 93 1.8 35.2
10:35 1004 29.65 834 24.63 3 37.4 92 1.9 35.4
10:40 1004 29.65 833 24.6 3.3 38 91 2 35.6
10:45 1005 29.68 834 24.63 3.5 38.3 89 1.9 35.4
10:50 1005 29.68 834 24.63 3 37.4 92 1.9 35.4
10:55 1005 29.68 835 24.66 2.6 36.6 93 1.5 34.7
11:00 1006 29.71 835 24.66 2 35.5 94 1.1 34
11:05 1006 29.71 835 24.66 1.5 34.8 95 0.8 33.4
11:10 1006 29.71 835 24.66 1.3 34.4 96 0.7 33.3
11:15 1005 29.68 835 24.66 1.5 34.7 96 0.9 33.7
11:20 1005 29.68 835 24.66 1.6 34.8 95 0.9 33.6
11:25 1005 29.68 835 24.66 1.8 35.2 95 1.1 33.9
11:30 1005 29.68 834 24.63 2 35.5 93 1 33.8
11:35 1005 29.68 834 24.63 1.8 35.2 94 0.9 33.6
11:40 1005 29.68 834 24.63 1.6 34.9 94 0.8 33.4
11:45 1005 29.68 834 24.63 1.6 34.8 94 0.8 33.4
11:50 1005 29.68 834 24.63 1.6 34.8 95 0.8 33.4
11:55 1005 29.68 834 24.63 1.7 35.1 95 1 33.9
12:00 1005 29.68 834 24.63 1.8 35.2 93 0.8 33.5
12:05 1005 29.68 834 24.63 1.5 34.7 95 0.8 33.4
12:10 1004 29.65 833 24.6 1.8 35.3 95 1.1 34
12:15 1005 29.68 834 24.63 2.4 36.2 94 1.5 34.7
12:20 1005 29.68 834 24.63 2.6 36.6 92 1.4 34.6
12:25 1004 29.65 834 24.63 2.6 36.6 94 1.7 35.1
12:30 1004 29.65 834 24.63 3 37.5 91 1.6 35
12:35 1004 29.65 834 24.63 3.4 38.1 89 1.8 35.2
12:40 1005 29.68 834 24.63 3.4 38.1 88 1.6 34.8
12:45 1005 29.68 834 24.63 3.1 37.6 89 1.5 34.7
12:50 1005 29.68 834 24.63 3.1 37.6 91 1.8 35.2
12:55 1005 29.68 834 24.63 3.2 37.8 90 1.7 35.1
13:00 1005 29.68 834 24.63 3.2 37.7 89 1.5 34.7
13:05 1005 29.68 834 24.63 3.2 37.7 90 1.6 34.9
13:10 1005 29.68 834 24.63 3.2 37.8 89 1.6 34.8
13:15 1005 29.68 834 24.63 3.2 37.8 89 1.6 34.8
13:20 1005 29.68 834 24.63 3.3 37.9 88 1.5 34.8
13:25 1005 29.68 834 24.63 3.1 37.6 89 1.4 34.5
13:30 1005 29.68 834 24.63 2.8 37.1 89 1.2 34.2
13:35 1005 29.68 834 24.63 2.8 37 88 1 33.8
13:40 1005 29.68 834 24.63 2.8 37 89 1.2 34.2
13:45 1005 29.68 834 24.63 2.9 37.1 88 1 33.8
13:50 1005 29.68 834 24.63 2.9 37.2 89 1.3 34.3
13:55 1005 29.68 834 24.63 3.1 37.6 89 1.5 34.7
14:00 1005 29.68 834 24.63 3 37.3 90 1.5 34.7
14:05 1005 29.68 834 24.63 3 37.3 91 1.6 34.8
14:10 1005 29.68 834 24.63 3.3 37.9 88 1.5 34.7
14:15 1005 29.68 834 24.63 3.2 37.7 90 1.6 34.9
14:20 1005 29.68 834 24.63 3 37.4 91 1.8 35.2
14:25 1005 29.68 834 24.63 2.8 37 92 1.6 34.9
14:30 1005 29.68 834 24.63 2.5 36.5 95 1.7 35.1
14:35 1005 29.68 834 24.63 2.5 36.6 94 1.7 35.1
14:40 1005 29.68 835 24.66 2.4 36.4 95 1.7 35
14:45 1005 29.68 835 24.66 2.6 36.6 94 1.7 35
14:50 1005 29.68 835 24.66 2.7 36.9 94 1.8 35.3
14:55 1006 29.71 835 24.66 2.6 36.8 94 1.8 35.2
15:00 1006 29.71 835 24.66 2.3 36.2 94 1.4 34.6
15:05 1006 29.71 835 24.66 2.1 35.8 95 1.4 34.5
15:10 1006 29.71 835 24.66 2.2 35.9 94 1.4 34.5
15:15 1005 29.68 835 24.66 2.1 35.7 94 1.2 34.1
15:20 1005 29.68 834 24.63 1.8 35.2 96 1.2 34.1
15:25 1005 29.68 834 24.63 2.1 35.8 96 1.5 34.7
15:30 1005 29.68 834 24.63 2.2 35.9 95 1.5 34.6
15:35 1005 29.68 834 24.63 2.4 36.3 95 1.7 35.1
15:40 1005 29.68 834 24.63 2.3 36.1 95 1.6 34.8
15:45 1005 29.68 834 24.63 2 35.5 94 1.1 34
15:50 1005 29.68 834 24.63 1.5 34.7 96 0.9 33.6
15:55 1005 29.68 834 24.63 1.4 34.5 97 0.9 33.7
16:00 1005 29.68 834 24.63 1.3 34.4 96 0.7 33.3
16:05 1005 29.68 834 24.63 1.2 34.2 96 0.6 33.1
16:10 1005 29.68 834 24.63 1.3 34.3 96 0.8 33.4
16:15 1005 29.68 834 24.63 1.4 34.5 96 0.9 33.5
16:20 1005 29.68 834 24.63 1.6 34.9 96 1.1 34
16:25 1005 29.68 834 24.63 1.9 35.4 96 1.3 34.3
16:30 1005 29.68 834 24.63 1.9 35.5 95 1.2 34.1
16:35 1005 29.68 834 24.63 1.9 35.4 95 1.2 34.2
16:40 1005 29.68 834 24.63 1.9 35.5 95 1.2 34.2
16:45 1006 29.71 835 24.66 2 35.6 95 1.3 34.3
16:50 1006 29.71 835 24.66 2 35.6 96 1.3 34.4
16:55 1006 29.71 835 24.66 1.9 35.3 95 1.2 34.2
17:00 1006 29.71 835 24.66 1.7 35 96 1.1 34
17:05 1006 29.71 835 24.66 1.8 35.2 96 1.2 34.2
17:10 1006 29.71 835 24.66 1.8 35.2 96 1.2 34.1
17:15 1006 29.71 835 24.66 2 35.6 95 1.4 34.5
17:20 1006 29.71 835 24.66 2.2 35.9 95 1.4 34.5
17:25 1006 29.71 835 24.66 2.5 36.4 94 1.6 34.9
17:30 1006 29.71 835 24.66 2.5 36.5 95 1.7 35.1
17:35 1006 29.71 835 24.66 2.4 36.3 94 1.5 34.8
17:40 1006 29.71 835 24.66 2.3 36.1 95 1.6 34.8
17:45 1006 29.71 835 24.66 2.3 36.2 95 1.7 35
17:50 1006 29.71 835 24.66 2.2 35.9 95 1.5 34.6
17:55 1006 29.71 835 24.66 2.1 35.7 95 1.3 34.4
18:00 1006 29.71 835 24.66 2 35.5 96 1.3 34.4
18:05 1006 29.71 835 24.66 1.9 35.4 96 1.3 34.3
18:10 1006 29.71 835 24.66 1.9 35.4 95 1.2 34.2
18:15 1006 29.71 835 24.66 1.9 35.5 94 1.1 34
18:20 1006 29.71 835 24.66 1.9 35.5 94 1 33.9
18:25 1006 29.71 835 24.66 2 35.7 94 1.2 34.2
18:30 1006 29.71 835 24.66 2.1 35.9 93 1.2 34.2
18:35 1006 29.71 835 24.66 2.2 35.9 93 1.2 34.1
18:40 1006 29.71 835 24.66 2.1 35.8 94 1.2 34.1
18:45 1006 29.71 835 24.66 2.1 35.7 94 1.2 34.1
18:50 1006 29.71 835 24.66 2.1 35.7 94 1.2 34.1
18:55 1006 29.71 836 24.69 1.9 35.5 94 1 33.9
19:00 1007 29.74 836 24.69 1.8 35.2 95 1.1 33.9
19:05 1007 29.74 836 24.69 1.7 35.1 96 1.1 34
19:10 1007 29.74 836 24.69 1.7 35 96 1.1 34
19:15 1007 29.74 836 24.69 1.7 35.1 95 1.1 33.9
19:20 1007 29.74 836 24.69 1.6 34.9 96 1 33.8
19:25 1007 29.74 836 24.69 1.6 34.8 96 1 33.8
19:30 1007 29.74 836 24.69 1.6 34.8 96 1 33.8
19:35 1007 29.74 836 24.69 1.6 34.8 96 1 33.8
19:40 1007 29.74 836 24.69 1.6 34.8 96 1.1 33.9
19:45 1007 29.74 836 24.69 1.6 34.8 96 1 33.9
19:50 1006 29.71 836 24.69 1.7 35 96 1.1 34
19:55 1006 29.71 836 24.69 1.7 35.1 96 1.1 34
20:00 1006 29.71 836 24.69 1.6 34.9 96 1 33.8
20:05 1007 29.74 836 24.69 1.5 34.8 96 1 33.7
20:10 1007 29.74 836 24.69 1.5 34.7 96 1 33.7
20:15 1007 29.74 836 24.69 1.5 34.6 96 1 33.7
20:20 1007 29.74 836 24.69 1.5 34.7 96 0.9 33.7
20:25 1007 29.74 836 24.69 1.5 34.6 96 0.8 33.5
20:30 1007 29.74 836 24.69 1.5 34.6 96 0.9 33.5
20:35 1007 29.74 836 24.69 1.6 34.8 96 0.9 33.6
20:40 1007 29.74 836 24.69 1.6 34.9 94 0.8 33.5
20:45 1007 29.74 836 24.69 1.6 34.9 94 0.7 33.3
20:50 1007 29.74 836 24.69 1.7 35.1 93 0.7 33.2
20:55 1007 29.74 836 24.69 1.8 35.2 92 0.7 33.2
21:00 1007 29.74 836 24.69 1.8 35.3 92 0.6 33.1
21:05 1007 29.74 836 24.69 1.8 35.2 92 0.6 33
21:10 1007 29.74 836 24.69 1.8 35.2 91 0.5 32.9
21:15 1007 29.74 836 24.69 1.8 35.2 92 0.5 33
21:20 1007 29.74 836 24.69 1.7 35.1 92 0.6 33
21:25 1007 29.74 836 24.69 1.9 35.3 91 0.5 32.9
21:30 1007 29.74 836 24.69 1.8 35.3 91 0.6 33
21:35 1007 29.74 836 24.69 1.7 35.1 92 0.5 32.9
21:40 1007 29.74 836 24.69 1.7 35.1 92 0.5 32.9
21:45 1007 29.74 836 24.69 1.7 35 91 0.4 32.7
21:50 1007 29.74 836 24.69 1.6 34.9 92 0.4 32.8
21:55 1007 29.74 836 24.69 1.6 34.8 92 0.4 32.8
22:00 1007 29.74 836 24.69 1.6 34.9 92 0.4 32.8
22:05 1007 29.74 836 24.69 1.4 34.4 93 0.4 32.7
22:10 1007 29.74 836 24.69 1.1 34 94 0.3 32.5
22:15 1007 29.74 836 24.69 1.2 34.1 94 0.4 32.7
22:20 1007 29.74 837 24.72 1.1 33.9 95 0.3 32.6
22:25 1008 29.77 837 24.72 1 33.8 95 0.3 32.6
22:30 1008 29.77 837 24.72 1.1 34 95 0.3 32.6
22:35 1008 29.77 837 24.72 1.2 34.1 94 0.3 32.6
22:40 1007 29.74 837 24.72 1.3 34.3 94 0.4 32.7
22:45 1007 29.74 837 24.72 1.3 34.4 93 0.3 32.6
22:50 1007 29.74 837 24.72 1.4 34.5 92 0.2 32.4
22:55 1007 29.74 837 24.72 1.4 34.5 93 0.3 32.6
23:00 1007 29.74 837 24.72 1.4 34.5 93 0.3 32.6
23:05 1007 29.74 836 24.69 1.3 34.3 93 0.3 32.6
23:10 1007 29.74 836 24.69 1.2 34.2 94 0.3 32.6
23:15 1007 29.74 837 24.72 1.3 34.3 94 0.3 32.6
23:20 1007 29.74 837 24.72 1.2 34.1 93 0.2 32.4
23:25 1007 29.74 836 24.69 1.3 34.4 92 0.2 32.4
23:30 1007 29.74 836 24.69 1.3 34.4 91 0.1 32.2
23:35 1007 29.74 836 24.69 1.4 34.5 91 0.1 32.1
23:40 1007 29.74 836 24.69 1.4 34.5 91 0.1 32.3
23:45 1007 29.74 836 24.69 1.4 34.6 92 0.2 32.4
23:50 1007 29.74 836 24.69 1.4 34.6 91 0.2 32.3
23:55 1007 29.74 836 24.69 1.3 34.4 92 0.1 32.2
24:00 1007 29.74 836 24.69 1.4 34.6 92 0.3 32.5